East Boldon, United Kingdom
Current Conditions -  °F | °C
As of 10:20 AM on Sunday 26 Oct 2014 (Local Time) from EGNT Reporting Station
Broken Clouds Broken Clouds  
Wind Chill: 57°   Ceiling: 3300
Heat Index: 57°   Visibility: 6mi
Dew Point: 46°   Wind: 14mph
Humidity: 67%   Direction: 220°SW
Pressure: 29.8"   Gusts: NA
Location:  54.95°N, 1.42°W
Report Text: EGNT 260920Z 22012KT 9999 BKN033 14/08 Q1009
Loading
Personal Weather Stations






























Interactive Weather Map New forecast layout! Learn more

10-Day Weather Forecast

Advertisements
Track Severe Weather on mobile